.
WxDataArchive / Data Records for 2011-09-07
2011-09-06 September 2011 2011-09-08

Data Records for Wednesday, 07 September 2011

Time	Temp	Chill	HIndex	Humid	Dewpt	 Wind 	HiWind	WindDir	Rain 	Barom 
-----	----	-----	------	-----	-----	------	------	-------	-----	----- 
00:00	56.2	56.2	56.2	78	49.4	0	3	90	0.00	30.068 
00:05	56.0	56.0	56.0	78	49.2	0	2	90	0.00	30.068 
00:10	56.0	56.0	56.0	78	49.2	0	2	90	0.00	30.068 
00:15	56.0	56.0	56.0	78	49.2	0	4	112	0.00	30.062 
00:20	56.2	56.2	56.2	77	49.1	1	7	112	0.00	30.062 
00:25	56.2	56.2	56.2	77	49.1	0	3	112	0.00	30.062 
00:30	56.2	56.2	56.2	77	49.1	0	3	112	0.00	30.060 
00:35	56.2	56.2	56.2	77	49.1	0	3	135	0.00	30.060 
00:40	56.2	56.2	56.2	77	49.1	0	1	315	0.00	30.060 
00:45	56.3	56.3	56.3	77	49.2	0	4	180	0.00	30.060 
00:50	56.3	56.3	56.3	77	49.2	0	4	112	0.00	30.060 
00:55	56.3	56.3	56.3	76	48.8	0	2	112	0.00	30.060 
01:00	56.3	56.3	56.3	77	49.2	0	4	135	0.00	30.053 
01:05	56.3	56.3	56.3	77	49.2	0	1	135	0.00	30.053 
01:10	56.3	56.3	56.3	77	49.2	0	1	135	0.00	30.053 
01:15	56.3	56.3	56.3	77	49.2	0	0	---	0.00	30.055 
01:20	56.3	56.3	56.3	77	49.2	0	2	135	0.00	30.055 
01:25	56.2	56.2	56.2	77	49.1	0	0	---	0.00	30.055 
01:30	56.0	56.0	56.0	78	49.2	0	1	135	0.00	30.057 
01:35	55.9	55.9	55.9	78	49.1	0	2	135	0.00	30.057 
01:40	55.9	55.9	55.9	79	49.5	0	1	135	0.00	30.057 
01:45	55.7	55.7	55.7	79	49.3	0	3	135	0.00	30.054 
01:50	55.9	55.9	55.9	79	49.5	0	4	292	0.00	30.054 
01:55	55.9	55.9	55.9	80	49.8	0	1	112	0.00	30.054 
02:00	55.9	55.9	55.9	80	49.8	0	1	112	0.00	30.050 
02:05	55.9	55.9	55.9	80	49.8	0	1	45	0.00	30.050 
02:10	56.0	56.0	56.0	80	49.9	0	1	45	0.00	30.050 
02:15	55.9	55.9	55.9	80	49.8	0	1	45	0.00	30.047 
02:20	55.9	55.9	55.9	80	49.8	0	2	202	0.00	30.047 
02:25	55.9	55.9	55.9	80	49.8	0	1	270	0.00	30.047 
02:30	55.9	55.9	55.9	80	49.8	0	3	270	0.00	30.044 
02:35	55.7	55.7	55.7	81	50.0	0	1	270	0.00	30.044 
02:40	55.6	55.6	55.6	81	49.9	0	3	248	0.00	30.044 
02:45	55.6	55.6	55.6	81	49.9	1	4	248	0.00	30.041 
02:50	55.6	55.6	55.6	81	49.9	0	3	158	0.00	30.041 
02:55	55.3	55.3	55.3	81	49.6	0	2	315	0.00	30.041 
03:00	55.1	55.1	55.1	82	49.7	0	2	315	0.00	30.037 
03:05	55.1	55.1	55.1	82	49.7	0	1	248	0.00	30.037 
03:10	55.0	55.0	55.0	83	49.9	0	1	248	0.00	30.037 
03:15	54.8	54.8	54.8	84	50.1	0	3	270	0.00	30.033 
03:20	54.8	54.8	54.8	84	50.1	0	1	270	0.00	30.033 
03:25	54.8	54.8	54.8	84	50.1	0	4	135	0.00	30.033 
03:30	54.8	54.8	54.8	85	50.4	0	3	112	0.00	30.033 
03:35	55.0	55.0	55.0	85	50.6	0	3	292	0.00	30.033 
03:40	55.0	55.0	55.0	85	50.6	0	3	135	0.00	30.033 
03:45	55.0	55.0	55.0	85	50.6	0	3	292	0.00	30.031 
03:50	54.8	54.8	54.8	84	50.1	0	2	112	0.00	30.031 
03:55	54.7	54.7	54.7	84	50.0	0	4	270	0.00	30.031 
04:00	54.7	54.7	54.7	85	50.3	0	2	270	0.00	30.030 
04:05	54.5	54.5	54.5	85	50.1	0	1	270	0.00	30.030 
04:10	54.5	54.5	54.5	85	50.1	0	2	270	0.00	30.030 
04:15	54.4	54.4	54.4	85	50.0	1	3	270	0.00	30.025 
04:20	54.4	54.4	54.4	85	50.0	0	3	270	0.00	30.025 
04:25	54.2	54.2	54.2	85	49.8	0	2	315	0.00	30.025 
04:30	54.1	54.1	54.1	85	49.7	0	2	0	0.00	30.029 
04:35	54.1	54.1	54.1	85	49.7	0	3	248	0.00	30.029 
04:40	53.9	53.9	53.9	86	49.8	0	5	270	0.00	30.029 
04:45	53.8	53.8	53.8	86	49.7	0	2	202	0.00	30.033 
04:50	53.8	53.8	53.8	86	49.7	0	1	202	0.00	30.033 
04:55	53.6	53.6	53.6	86	49.5	0	1	292	0.00	30.033 
05:00	53.6	53.6	53.6	86	49.5	0	1	292	0.00	30.031 
05:05	53.6	53.6	53.6	86	49.5	0	1	315	0.00	30.031 
05:10	53.6	53.6	53.6	86	49.5	0	4	270	0.00	30.031 
05:15	53.6	53.6	53.6	86	49.5	0	3	270	0.00	30.033 
05:20	53.5	53.5	53.5	86	49.4	0	2	270	0.00	30.033 
05:25	53.5	53.5	53.5	86	49.4	0	1	270	0.00	30.033 
05:30	53.5	53.5	53.5	86	49.4	0	5	270	0.00	30.029 
05:35	53.3	53.3	53.3	86	49.2	0	3	270	0.00	30.029 
05:40	53.3	53.3	53.3	86	49.2	0	1	270	0.00	30.029 
05:45	53.2	53.2	53.2	86	49.1	0	2	270	0.00	30.030 
05:50	53.2	53.2	53.2	87	49.4	0	3	315	0.00	30.030 
05:55	53.2	53.2	53.2	87	49.4	0	1	315	0.00	30.030 
06:00	53.2	53.2	53.2	87	49.4	0	3	292	0.00	30.029 
06:05	53.2	53.2	53.2	87	49.4	0	2	315	0.00	30.029 
06:10	53.2	53.2	53.2	87	49.4	0	3	90	0.00	30.029 
06:15	53.3	53.3	53.3	86	49.2	1	4	270	0.00	30.025 
06:20	53.3	53.3	53.3	86	49.2	0	2	292	0.00	30.025 
06:25	53.5	53.5	53.5	86	49.4	0	2	292	0.00	30.025 
06:30	53.5	53.5	53.5	86	49.4	0	1	292	0.00	30.035 
06:35	53.5	53.5	53.5	86	49.4	0	2	135	0.00	30.035 
06:40	53.5	53.5	53.5	86	49.4	0	2	202	0.00	30.035 
06:45	53.6	53.6	53.6	86	49.5	0	2	248	0.00	30.035 
06:50	53.6	53.6	53.6	86	49.5	0	1	292	0.00	30.035 
06:55	53.6	53.6	53.6	86	49.5	0	3	292	0.00	30.035 
07:00	53.8	53.8	53.8	86	49.7	1	4	338	0.00	30.036 
07:05	53.8	53.8	53.8	85	49.4	0	3	270	0.00	30.036 
07:10	53.9	53.9	53.9	85	49.5	1	4	270	0.00	30.036 
07:15	54.1	54.1	54.1	85	49.7	1	5	112	0.00	30.035 
07:20	54.2	54.2	54.2	85	49.8	1	6	292	0.00	30.035 
07:25	54.2	54.2	54.2	85	49.8	0	6	270	0.00	30.035 
07:30	54.2	54.2	54.2	84	49.5	1	6	270	0.00	30.035 
07:35	54.4	54.4	54.4	84	49.7	0	2	270	0.00	30.035 
07:40	54.4	54.4	54.4	84	49.7	0	4	225	0.00	30.035 
07:45	54.5	54.5	54.5	84	49.8	1	4	248	0.00	30.037 
07:50	54.5	54.5	54.5	84	49.8	1	6	338	0.00	30.037 
07:55	54.7	54.7	54.7	84	50.0	1	3	270	0.00	30.037 
08:00	54.8	54.8	54.8	84	50.1	0	2	338	0.00	30.037 
08:05	55.0	55.0	55.0	84	50.3	0	2	315	0.00	30.037 
08:10	55.1	55.1	55.1	84	50.4	0	3	270	0.00	30.037 
08:15	55.1	55.1	55.1	84	50.4	0	2	292	0.00	30.041 
08:20	55.3	55.3	55.3	84	50.5	1	3	292	0.00	30.041 
08:25	55.4	55.4	55.4	84	50.6	1	2	315	0.00	30.041 
08:30	55.4	55.4	55.4	84	50.6	0	3	338	0.00	30.043 
08:35	55.6	55.6	55.6	84	50.8	0	3	315	0.00	30.043 
08:40	55.7	55.7	55.7	85	51.3	0	2	315	0.00	30.043 
08:45	55.7	55.7	55.7	85	51.3	1	5	315	0.00	30.046 
08:50	55.7	55.7	55.7	85	51.3	0	2	248	0.00	30.046 
08:55	55.7	55.7	55.7	86	51.6	0	3	158	0.00	30.046 
09:00	55.9	55.9	55.9	86	51.8	0	0	---	0.00	30.048 
09:05	55.7	55.7	55.7	87	51.9	1	6	135	0.00	30.048 
09:10	55.9	55.9	55.9	88	52.4	1	7	225	0.00	30.048 
09:15	55.9	55.9	55.9	88	52.4	1	5	22	0.00	30.053 
09:20	55.9	55.9	55.9	88	52.4	0	3	90	0.00	30.053 
09:25	55.9	55.9	55.9	88	52.4	0	2	90	0.00	30.053 
09:30	56.0	56.0	56.0	89	52.8	0	2	90	0.00	30.053 
09:35	56.0	56.0	56.0	88	52.5	0	2	90	0.00	30.053 
09:40	56.2	56.2	56.2	88	52.7	0	1	68	0.00	30.053 
09:45	56.3	56.3	56.3	88	52.8	0	3	292	0.00	30.048 
09:50	56.5	56.5	56.5	88	53.0	1	6	135	0.00	30.048 
09:55	56.5	56.5	56.5	87	52.7	0	1	135	0.00	30.048 
10:00	56.6	56.6	56.6	87	52.8	1	4	292	0.00	30.046 
10:05	56.9	56.9	56.9	86	52.8	1	3	270	0.00	30.046 
10:10	57.0	57.0	57.0	86	52.9	1	7	90	0.00	30.046 
10:15	57.0	57.0	57.0	85	52.5	0	4	0	0.00	30.050 
10:20	57.2	57.2	57.2	85	52.7	0	2	270	0.00	30.050 
10:25	57.5	57.5	57.5	84	52.7	1	4	270	0.00	30.050 
10:30	57.6	57.6	57.6	84	52.8	1	3	270	0.00	30.048 
10:35	58.0	58.0	58.0	84	53.2	0	2	315	0.00	30.048 
10:40	58.3	58.3	58.3	84	53.5	0	4	292	0.00	30.048 
10:45	58.4	58.4	58.4	84	53.6	0	4	270	0.00	30.053 
10:50	58.6	58.6	58.6	84	53.8	0	2	292	0.00	30.053 
10:55	58.6	58.6	58.6	84	53.8	0	4	112	0.00	30.053 
11:00	58.6	58.6	58.6	85	54.1	0	7	158	0.01	30.049 
11:05	58.4	58.4	58.4	85	53.9	1	4	158	0.00	30.049 
11:10	58.4	58.4	58.4	85	53.9	1	4	22	0.00	30.049 
11:15	58.6	58.6	58.6	85	54.1	0	2	22	0.00	30.051 
11:20	58.6	58.6	58.6	85	54.1	0	2	292	0.00	30.051 
11:25	58.7	58.7	58.7	86	54.5	0	2	292	0.00	30.051 
11:30	58.6	58.6	58.6	85	54.1	0	3	248	0.00	30.047 
11:35	58.6	58.6	58.6	85	54.1	0	4	270	0.00	30.047 
11:40	58.7	58.7	58.7	86	54.5	0	6	22	0.00	30.047 
11:45	58.9	58.9	58.9	86	54.7	0	2	248	0.00	30.046 
11:50	58.9	58.9	58.9	86	54.7	0	5	315	0.01	30.046 
11:55	58.9	58.9	58.9	87	55.0	1	7	270	0.00	30.046 
12:00	58.9	58.9	58.9	88	55.3	0	2	270	0.01	30.047 
12:05	58.7	58.7	58.7	89	55.5	1	4	225	0.00	30.047 
12:10	58.6	58.6	58.6	89	55.4	1	3	292	0.01	30.047 
12:15	58.6	58.6	58.6	90	55.7	0	2	292	0.01	30.048 
12:20	58.6	58.6	58.6	90	55.7	0	2	292	0.00	30.048 
12:25	58.4	58.4	58.4	90	55.5	0	2	292	0.01	30.048 
12:30	58.3	58.3	58.3	91	55.7	1	4	90	0.00	30.046 
12:35	58.3	58.3	58.3	91	55.7	0	3	270	0.00	30.046 
12:40	58.3	58.3	58.3	91	55.7	1	4	292	0.00	30.046 
12:45	58.3	58.3	58.3	91	55.7	0	3	292	0.00	30.045 
12:50	58.3	58.3	58.3	91	55.7	2	7	270	0.00	30.045 
12:55	58.4	58.4	58.4	92	56.1	1	7	315	0.00	30.045 
13:00	58.4	58.4	58.4	92	56.1	1	3	315	0.00	30.040 
13:05	58.6	58.6	58.6	92	56.3	1	3	292	0.00	30.040 
13:10	58.6	58.6	58.6	92	56.3	1	4	315	0.00	30.040 
13:15	58.6	58.6	58.6	92	56.3	1	3	315	0.00	30.038 
13:20	58.7	58.7	58.7	92	56.4	1	6	292	0.00	30.038 
13:25	58.7	58.7	58.7	92	56.4	1	5	292	0.00	30.038 
13:30	58.7	58.7	58.7	92	56.4	1	4	0	0.01	30.038 
13:35	58.6	58.6	58.6	92	56.3	1	5	315	0.00	30.038 
13:40	58.6	58.6	58.6	91	56.0	1	4	0	0.00	30.038 
13:45	58.6	58.6	58.6	91	56.0	2	6	292	0.00	30.032 
13:50	58.6	58.6	58.6	91	56.0	1	4	0	0.00	30.032 
13:55	58.6	58.6	58.6	92	56.3	1	5	248	0.00	30.032 
14:00	58.6	58.6	58.6	92	56.3	1	6	248	0.00	30.029 
14:05	58.6	58.6	58.6	92	56.3	1	3	315	0.00	30.029 
14:10	58.6	58.6	58.6	92	56.3	1	6	270	0.00	30.029 
14:15	58.6	58.6	58.6	92	56.3	1	6	270	0.00	30.027 
14:20	58.6	58.6	58.6	92	56.3	0	3	0	0.00	30.027 
14:25	58.4	58.4	58.4	92	56.1	1	5	270	0.00	30.027 
14:30	58.4	58.4	58.4	92	56.1	1	4	270	0.01	30.027 
14:35	58.6	58.6	58.6	92	56.3	1	4	270	0.00	30.027 
14:40	58.4	58.4	58.4	92	56.1	0	2	270	0.00	30.027 
14:45	58.6	58.6	58.6	92	56.3	1	4	45	0.00	30.024 
14:50	58.6	58.6	58.6	92	56.3	1	4	270	0.01	30.024 
14:55	58.6	58.6	58.6	93	56.6	0	4	270	0.00	30.024 
15:00	58.7	58.7	58.7	93	56.7	1	3	270	0.00	30.024 
15:05	58.6	58.6	58.6	92	56.3	1	6	270	0.01	30.024 
15:10	58.4	58.4	58.4	93	56.4	1	4	270	0.01	30.024 
15:15	58.4	58.4	58.4	93	56.4	0	2	292	0.01	30.025 
15:20	58.4	58.4	58.4	93	56.4	0	3	338	0.01	30.025 
15:25	58.4	58.4	58.4	93	56.4	1	9	270	0.00	30.025 
15:30	58.6	58.6	58.6	93	56.6	0	3	292	0.01	30.020 
15:35	58.6	58.6	58.6	93	56.6	1	4	292	0.01	30.020 
15:40	58.7	58.7	58.7	93	56.7	1	7	292	0.00	30.020 
15:45	58.7	58.7	58.7	94	57.0	1	4	135	0.01	30.017 
15:50	58.9	58.9	58.9	94	57.2	1	4	292	0.00	30.017 
15:55	58.9	58.9	58.9	94	57.2	1	5	292	0.01	30.017 
16:00	58.9	58.9	58.9	94	57.2	1	5	292	0.00	30.015 
16:05	59.0	59.0	59.0	94	57.3	1	5	248	0.00	30.015 
16:10	59.0	59.0	59.0	94	57.3	1	4	270	0.01	30.015 
16:15	59.0	59.0	59.0	94	57.3	1	4	0	0.00	30.015 
16:20	59.0	59.0	59.0	93	57.0	1	5	292	0.00	30.015 
16:25	59.0	59.0	59.0	93	57.0	1	5	292	0.00	30.015 
16:30	58.7	58.7	58.7	93	56.7	2	9	315	0.01	30.019 
16:35	58.7	58.7	58.7	93	56.7	1	5	338	0.00	30.019 
16:40	58.6	58.6	58.6	92	56.3	1	4	0	0.00	30.019 
16:45	58.4	58.4	58.4	92	56.1	1	3	315	0.00	30.022 
16:50	58.3	58.3	58.3	92	56.0	1	5	315	0.00	30.022 
16:55	58.4	58.4	58.4	92	56.1	1	4	270	0.00	30.022 
17:00	58.3	58.3	58.3	92	56.0	1	5	292	0.00	30.025 
17:05	58.3	58.3	58.3	92	56.0	1	4	292	0.01	30.025 
17:10	58.3	58.3	58.3	92	56.0	1	6	270	0.00	30.025 
17:15	58.3	58.3	58.3	92	56.0	1	5	315	0.00	30.027 
17:20	58.3	58.3	58.3	92	56.0	2	7	315	0.00	30.027 
17:25	58.3	58.3	58.3	92	56.0	1	3	292	0.00	30.027 
17:30	58.3	58.3	58.3	92	56.0	1	5	292	0.00	30.027 
17:35	58.3	58.3	58.3	92	56.0	1	3	270	0.00	30.027 
17:40	58.3	58.3	58.3	93	56.3	1	4	270	0.01	30.027 
17:45	58.3	58.3	58.3	93	56.3	1	4	270	0.00	30.028 
17:50	58.4	58.4	58.4	93	56.4	0	3	248	0.01	30.028 
17:55	58.4	58.4	58.4	93	56.4	1	4	248	0.00	30.028 
18:00	58.6	58.6	58.6	93	56.6	0	1	248	0.00	30.026 
18:05	58.6	58.6	58.6	93	56.6	1	5	248	0.00	30.026 
18:10	58.6	58.6	58.6	93	56.6	0	3	292	0.00	30.026 
18:15	58.7	58.7	58.7	93	56.7	0	4	315	0.00	30.031 
18:20	58.7	58.7	58.7	93	56.7	0	4	270	0.00	30.031 
18:25	58.7	58.7	58.7	93	56.7	1	6	90	0.01	30.031 
18:30	58.6	58.6	58.6	93	56.6	0	2	248	0.00	30.035 
18:35	58.4	58.4	58.4	93	56.4	1	3	270	0.00	30.035 
18:40	58.3	58.3	58.3	93	56.3	1	5	315	0.01	30.035 
18:45	58.1	58.1	58.1	93	56.1	1	3	292	0.00	30.037 
18:50	58.1	58.1	58.1	93	56.1	1	9	270	0.00	30.037 
18:55	58.0	58.0	58.0	92	55.7	1	6	270	0.01	30.037 
19:00	57.8	57.8	57.8	92	55.5	1	10	315	0.00	30.042 
19:05	57.6	57.6	57.6	92	55.3	1	5	292	0.01	30.042 
19:10	57.5	57.5	57.5	92	55.2	1	4	248	0.00	30.042 
19:15	57.3	57.3	57.3	92	55.0	1	4	45	0.01	30.043 
19:20	57.2	57.2	57.2	92	54.9	1	5	0	0.00	30.043 
19:25	57.2	57.2	57.2	92	54.9	1	4	292	0.00	30.043 
19:30	57.2	57.2	57.2	92	54.9	1	5	292	0.01	30.044 
19:35	57.0	57.0	57.0	92	54.7	1	4	315	0.01	30.044 
19:40	57.0	57.0	57.0	92	54.7	1	9	338	0.00	30.044 
19:45	57.0	57.0	57.0	92	54.7	1	6	22	0.01	30.043 
19:50	57.0	57.0	57.0	93	55.0	1	3	248	0.00	30.043 
19:55	57.0	57.0	57.0	93	55.0	1	5	248	0.01	30.043 
20:00	57.0	57.0	57.0	93	55.0	1	3	292	0.00	30.042 
20:05	57.0	57.0	57.0	93	55.0	1	4	292	0.00	30.042 
20:10	57.0	57.0	57.0	93	55.0	1	3	292	0.00	30.042 
20:15	57.0	57.0	57.0	93	55.0	1	3	315	0.01	30.042 
20:20	57.2	57.2	57.2	93	55.2	1	3	315	0.00	30.042 
20:25	57.0	57.0	57.0	93	55.0	1	3	270	0.00	30.042 
20:30	57.0	57.0	57.0	93	55.0	1	6	315	0.00	30.042 
20:35	57.0	57.0	57.0	93	55.0	1	5	248	0.01	30.042 
20:40	56.7	56.7	56.7	93	54.7	1	6	0	0.00	30.042 
20:45	56.7	56.7	56.7	93	54.7	1	5	315	0.00	30.043 
20:50	56.5	56.5	56.5	93	54.5	1	4	315	0.01	30.043 
20:55	56.5	56.5	56.5	93	54.5	1	5	270	0.00	30.043 
21:00	56.5	56.5	56.5	93	54.5	1	5	248	0.00	30.045 
21:05	56.3	56.3	56.3	93	54.3	1	3	338	0.00	30.045 
21:10	56.3	56.3	56.3	93	54.3	1	6	292	0.00	30.045 
21:15	56.3	56.3	56.3	93	54.3	1	6	338	0.00	30.044 
21:20	56.3	56.3	56.3	93	54.3	1	3	270	0.01	30.044 
21:25	56.2	56.2	56.2	93	54.2	1	6	315	0.00	30.044 
21:30	56.2	56.2	56.2	93	54.2	1	4	315	0.00	30.046 
21:35	56.2	56.2	56.2	93	54.2	1	4	315	0.00	30.046 
21:40	56.2	56.2	56.2	93	54.2	1	4	315	0.01	30.046 
21:45	56.0	56.0	56.0	93	54.0	1	3	270	0.00	30.048 
21:50	56.0	56.0	56.0	93	54.0	1	3	338	0.00	30.048 
21:55	56.0	56.0	56.0	93	54.0	2	6	270	0.00	30.048 
22:00	56.0	56.0	56.0	93	54.0	1	3	270	0.00	30.044 
22:05	56.0	56.0	56.0	93	54.0	1	5	22	0.00	30.044 
22:10	56.0	56.0	56.0	93	54.0	1	5	270	0.00	30.044 
22:15	56.0	56.0	56.0	93	54.0	1	5	315	0.00	30.041 
22:20	56.2	56.2	56.2	93	54.2	1	5	292	0.00	30.041 
22:25	56.2	56.2	56.2	93	54.2	1	6	292	0.00	30.041 
22:30	56.2	56.2	56.2	93	54.2	1	4	338	0.00	30.040 
22:35	56.2	56.2	56.2	93	54.2	1	4	338	0.00	30.040 
22:40	56.2	56.2	56.2	93	54.2	1	6	292	0.00	30.040 
22:45	56.0	56.0	56.0	93	54.0	1	6	292	0.01	30.039 
22:50	56.0	56.0	56.0	93	54.0	1	3	292	0.00	30.039 
22:55	55.9	55.9	55.9	93	53.9	2	15	292	0.00	30.039 
23:00	55.9	55.9	55.9	94	54.2	1	4	292	0.01	30.036 
23:05	55.9	55.9	55.9	94	54.2	2	5	315	0.00	30.036 
23:10	55.9	55.9	55.9	94	54.2	1	3	292	0.01	30.036 
23:15	55.9	55.9	55.9	94	54.2	1	4	270	0.01	30.030 
23:20	55.9	55.9	55.9	94	54.2	1	4	292	0.00	30.030 
23:25	55.9	55.9	55.9	94	54.2	1	4	292	0.01	30.030 
23:30	55.9	55.9	55.9	94	54.2	1	6	90	0.01	30.024 
23:35	55.9	55.9	55.9	94	54.2	1	4	270	0.02	30.024 
23:40	55.9	55.9	55.9	94	54.2	1	5	270	0.00	30.024 
23:45	55.9	55.9	55.9	94	54.2	0	3	315	0.00	30.019 
23:50	55.9	55.9	55.9	95	54.5	0	2	315	0.00	30.019 
23:55	55.9	55.9	55.9	95	54.5	1	4	292	0.00	30.019 

CoCoRaHS
IN-AL-39
A2 Web Hosting
Creative Commons License
GoDaddy
search engine by freefind advanced

loaded 2018-11-20 07:23:37 • last modified 2010-11-18 10:43:29
Privacy PolicyDisclaimer
• wx.awcolley.com is powered by PmWiki v.2002016 •
• all content (unless otherwise noted) © 2018 A W Colley